createdAt,value
2023-01-02T00:02:05.819Z,99034.13
2023-01-02T00:05:16.427Z,99018.06
2023-01-02T00:08:22.458Z,99014.31
2023-01-02T00:11:29.242Z,99015.97
2023-01-02T00:14:35.141Z,99003.66
2023-01-02T00:17:41.780Z,99002.84
2023-01-02T00:20:50.836Z,98999.56
2023-01-02T00:23:57.531Z,99001.19
2023-01-02T00:27:03.273Z,98989.34
2023-01-02T00:30:12.403Z,98994.16
2023-01-02T00:33:18.929Z,99000.22
2023-01-02T00:36:29.107Z,99002.72
2023-01-02T00:39:34.909Z,98995.50
2023-01-02T00:42:41.754Z,98996.84
2023-01-02T00:45:48.937Z,99001.63
2023-01-02T00:48:55.628Z,98995.44
2023-01-02T00:52:04.035Z,99001.63
2023-01-02T00:55:12.012Z,98996.91
2023-01-02T00:58:18.704Z,98991.97
2023-01-02T01:01:25.367Z,98981.78
2023-01-02T01:04:31.512Z,98986.66
2023-01-02T01:07:40.790Z,98986.13
2023-01-02T01:10:46.718Z,98993.16
2023-01-02T01:13:54.429Z,98984.63
2023-01-02T01:17:00.126Z,98983.13
2023-01-02T01:20:08.809Z,98985.69
2023-01-02T01:23:17.149Z,98982.75
2023-01-02T01:26:25.483Z,98971.75
2023-01-02T01:29:31.424Z,98967.13
2023-01-02T01:32:38.207Z,98959.00
2023-01-02T01:35:44.672Z,98963.13
2023-01-02T01:38:54.681Z,98967.63
2023-01-02T01:42:03.968Z,98968.34
2023-01-02T01:45:18.898Z,98973.19
2023-01-02T01:48:28.987Z,98961.75
2023-01-02T01:51:46.117Z,98964.03
2023-01-02T01:55:04.329Z,98952.72
2023-01-02T01:58:17.155Z,98949.25
2023-01-02T02:01:23.353Z,98923.81
2023-01-02T02:04:31.696Z,98931.50
2023-01-02T02:07:49.062Z,98921.59
2023-01-02T02:11:02.128Z,98920.13
2023-01-02T02:14:08.013Z,98915.31
2023-01-02T02:17:30.307Z,98918.16
2023-01-02T02:20:56.149Z,98927.91
2023-01-02T02:24:35.698Z,98925.97
2023-01-02T02:28:25.522Z,98921.19
2023-01-02T02:31:49.151Z,98919.22
2023-01-02T02:35:09.612Z,98912.22
2023-01-02T02:38:38.976Z,98914.47
2023-01-02T02:42:04.443Z,98919.47
2023-01-02T02:45:27.188Z,98917.53
2023-01-02T02:48:53.291Z,98908.41
2023-01-02T02:52:10.442Z,98894.50
2023-01-02T02:55:26.295Z,98913.63
2023-01-02T02:58:36.318Z,98912.66
2023-01-02T03:01:42.158Z,98920.88
2023-01-02T03:04:59.721Z,98922.03
2023-01-02T03:08:19.771Z,98915.34
2023-01-02T03:11:41.931Z,98922.66
2023-01-02T03:15:02.753Z,98918.81
2023-01-02T03:18:26.624Z,98901.75
2023-01-02T03:21:44.414Z,98915.06
2023-01-02T03:24:58.863Z,98910.97
2023-01-02T03:28:10.766Z,98899.66
2023-01-02T03:31:24.529Z,98896.72
2023-01-02T03:34:39.415Z,98899.59
2023-01-02T03:37:57.180Z,98906.47
2023-01-02T03:41:14.500Z,98914.19
2023-01-02T03:44:23.807Z,98914.22
2023-01-02T03:47:41.909Z,98913.53
2023-01-02T03:50:54.636Z,98912.00
2023-01-02T03:54:07.099Z,98899.75
2023-01-02T03:57:31.273Z,98886.16
2023-01-02T04:00:46.053Z,98891.81
2023-01-02T04:04:03.344Z,98884.41
2023-01-02T04:07:16.301Z,98878.38
2023-01-02T04:10:28.888Z,98876.03
2023-01-02T04:13:43.443Z,98883.44
2023-01-02T04:16:55.640Z,98883.28
2023-01-02T04:20:08.663Z,98877.38
2023-01-02T04:23:22.770Z,98866.63
2023-01-02T04:26:44.027Z,98862.66
2023-01-02T04:29:50.860Z,98858.25
2023-01-02T04:32:59.083Z,98861.28
2023-01-02T04:36:12.384Z,98868.84
2023-01-02T04:39:18.314Z,98868.56
2023-01-02T04:42:27.715Z,98871.75
2023-01-02T04:45:33.441Z,98869.56
2023-01-02T04:48:40.259Z,98859.66
2023-01-02T04:51:46.097Z,98865.31
2023-01-02T04:54:52.761Z,98868.84
2023-01-02T04:58:01.775Z,98866.53
2023-01-02T05:01:18.075Z,98851.66
2023-01-02T05:04:24.341Z,98862.00
2023-01-02T05:07:30.917Z,98855.09
2023-01-02T05:10:37.207Z,98850.72
2023-01-02T05:13:46.874Z,98854.94
2023-01-02T05:16:52.592Z,98848.47
2023-01-02T05:19:59.305Z,98845.53
2023-01-02T05:23:17.384Z,98852.66
2023-01-02T05:26:24.121Z,98856.28
2023-01-02T05:29:32.904Z,98852.75
2023-01-02T05:32:40.384Z,98856.16
2023-01-02T05:35:46.261Z,98852.41
2023-01-02T05:38:53.334Z,98854.19
2023-01-02T05:41:59.196Z,98868.59
2023-01-02T05:45:10.285Z,98870.50
2023-01-02T05:48:17.055Z,98865.66
2023-01-02T05:51:23.715Z,98873.94
2023-01-02T05:54:29.572Z,98880.81
2023-01-02T05:57:36.482Z,98884.34
2023-01-02T06:00:44.901Z,98885.13
2023-01-02T06:03:54.639Z,98890.56
2023-01-02T06:07:00.452Z,98889.97
2023-01-02T06:10:07.892Z,98879.56
2023-01-02T06:13:13.744Z,98884.81
2023-01-02T06:16:23.206Z,98876.34
2023-01-02T06:19:29.018Z,98887.22
2023-01-02T06:22:35.843Z,98889.56
2023-01-02T06:25:41.659Z,98875.38
2023-01-02T06:28:52.044Z,98879.31
2023-01-02T06:32:00.546Z,98871.47
2023-01-02T06:35:08.199Z,98872.41
2023-01-02T06:38:14.000Z,98874.28
2023-01-02T06:41:21.635Z,98881.00
2023-01-02T06:44:27.518Z,98883.22
2023-01-02T06:47:36.834Z,98866.84
2023-01-02T06:50:42.564Z,98883.25
2023-01-02T06:53:50.110Z,98878.09
2023-01-02T06:56:55.961Z,98883.00
2023-01-02T07:00:02.638Z,98861.13
2023-01-02T07:03:11.044Z,98879.19
2023-01-02T07:06:20.366Z,98876.84
2023-01-02T07:09:26.301Z,98872.19
2023-01-02T07:12:33.918Z,98874.50
2023-01-02T07:15:39.745Z,98867.38
2023-01-02T07:18:50.190Z,98867.78
2023-01-02T07:21:55.984Z,98871.59
2023-01-02T07:25:03.195Z,98876.66
2023-01-02T07:28:09.756Z,98881.00
2023-01-02T07:31:19.575Z,98881.66
2023-01-02T07:34:28.012Z,98875.44
2023-01-02T07:37:34.862Z,98870.13
2023-01-02T07:40:40.539Z,98872.22
2023-01-02T07:43:49.348Z,98872.69
2023-01-02T07:46:55.148Z,98869.88
2023-01-02T07:50:04.421Z,98871.16
2023-01-02T07:53:10.277Z,98873.25
2023-01-02T07:56:16.836Z,98856.88
2023-01-02T07:59:22.742Z,98856.66
2023-01-02T08:02:29.573Z,98853.06
2023-01-02T08:05:39.725Z,98857.28
2023-01-02T08:08:46.877Z,98847.06
2023-01-02T08:11:52.787Z,98849.03
2023-01-02T08:14:59.591Z,98858.53
2023-01-02T08:18:05.460Z,98846.47
2023-01-02T08:21:14.854Z,98849.75
2023-01-02T08:24:20.797Z,98856.78
2023-01-02T08:27:27.291Z,98852.66
2023-01-02T08:30:33.309Z,98850.03
2023-01-02T08:33:40.225Z,98861.59
2023-01-02T08:36:49.203Z,98852.09
2023-01-02T08:39:55.824Z,98853.84
2023-01-02T08:43:01.896Z,98853.16
2023-01-02T08:46:11.162Z,98846.53
2023-01-02T08:49:19.803Z,98853.00
2023-01-02T08:52:29.161Z,98845.69
2023-01-02T08:55:35.248Z,98838.94
2023-01-02T08:58:41.943Z,98851.44
2023-01-02T09:01:50.263Z,98850.19
2023-01-02T09:04:57.112Z,98848.25
2023-01-02T09:08:06.167Z,98852.41
2023-01-02T09:11:17.802Z,98853.91
2023-01-02T09:14:25.802Z,98850.72
2023-01-02T09:17:32.488Z,98841.03
2023-01-02T09:20:43.001Z,98841.53
2023-01-02T09:23:52.393Z,98842.47
2023-01-02T09:26:58.417Z,98835.25
2023-01-02T09:30:05.039Z,98829.00
2023-01-02T09:33:11.031Z,98832.22
2023-01-02T09:36:20.985Z,98813.47
2023-01-02T09:39:32.794Z,98820.66
2023-01-02T09:42:39.704Z,98816.09
2023-01-02T09:45:49.361Z,98808.59
2023-01-02T09:48:56.256Z,98819.16
2023-01-02T09:52:02.317Z,98806.88
2023-01-02T09:55:20.126Z,98814.97
2023-01-02T09:58:40.321Z,98812.72
2023-01-02T10:02:04.839Z,98805.25
2023-01-02T10:05:40.391Z,98802.03
2023-01-02T10:09:05.275Z,98791.22
2023-01-02T10:12:30.415Z,98793.59
2023-01-02T10:15:38.949Z,98792.38
2023-01-02T10:18:53.385Z,98766.69
2023-01-02T10:22:04.767Z,98771.16
2023-01-02T10:25:19.171Z,98780.56
2023-01-02T10:28:43.880Z,98768.81
2023-01-02T10:32:01.307Z,98765.78
2023-01-02T10:35:29.364Z,98765.34
2023-01-02T10:38:41.589Z,98764.94
2023-01-02T10:41:55.022Z,98757.59
2023-01-02T10:45:04.631Z,98746.16
2023-01-02T10:48:13.890Z,98734.50
2023-01-02T10:51:21.863Z,98732.56
2023-01-02T10:54:28.753Z,98738.00
2023-01-02T10:57:45.503Z,98727.81
2023-01-02T11:01:08.944Z,98722.31
2023-01-02T11:04:23.161Z,98714.47
2023-01-02T11:07:34.841Z,98714.25
2023-01-02T11:10:40.928Z,98702.38
2023-01-02T11:13:54.332Z,98693.00
2023-01-02T11:17:09.878Z,98696.41
2023-01-02T11:20:30.643Z,98689.25
2023-01-02T11:23:43.941Z,98693.91
2023-01-02T11:26:53.340Z,98691.25
2023-01-02T11:30:00.634Z,98687.78
2023-01-02T11:33:27.763Z,98692.34
2023-01-02T11:36:33.793Z,98697.41
2023-01-02T11:39:42.096Z,98695.47
2023-01-02T11:43:09.047Z,98697.31
2023-01-02T11:46:31.362Z,98704.44
2023-01-02T11:49:48.689Z,98699.31
2023-01-02T11:53:04.277Z,98688.22
2023-01-02T11:56:21.831Z,98688.53
2023-01-02T11:59:39.586Z,98688.25
2023-01-02T12:02:49.993Z,98674.16
2023-01-02T12:06:18.146Z,98664.44
2023-01-02T12:09:40.871Z,98676.63
2023-01-02T12:13:12.108Z,98664.75
2023-01-02T12:16:34.965Z,98681.38
2023-01-02T12:20:25.523Z,98676.06
2023-01-02T12:24:07.440Z,98684.78
2023-01-02T12:27:31.756Z,98688.28
2023-01-02T12:30:51.503Z,98692.97
2023-01-02T12:34:22.115Z,98694.22
2023-01-02T12:37:50.873Z,98693.81
2023-01-02T12:41:24.288Z,98682.69
2023-01-02T12:44:52.720Z,98677.47
2023-01-02T12:48:26.695Z,98678.44
2023-01-02T12:51:44.909Z,98659.88
2023-01-02T12:55:19.516Z,98661.38
2023-01-02T12:58:54.352Z,98658.03
2023-01-02T13:02:17.315Z,98653.13
2023-01-02T13:05:30.668Z,98655.44
2023-01-02T13:08:56.590Z,98664.56
2023-01-02T13:12:14.537Z,98655.28
2023-01-02T13:15:31.032Z,98670.72
2023-01-02T13:19:00.011Z,98672.41
2023-01-02T13:22:25.154Z,98672.78
2023-01-02T13:25:35.429Z,98668.50
2023-01-02T13:28:45.144Z,98663.41
2023-01-02T13:31:59.447Z,98672.13
2023-01-02T13:35:08.211Z,98668.06
2023-01-02T13:38:20.538Z,98674.72
2023-01-02T13:41:30.036Z,98667.41
2023-01-02T13:44:40.412Z,98668.88
2023-01-02T13:47:57.888Z,98674.53
2023-01-02T13:51:09.050Z,98664.53
2023-01-02T13:54:21.807Z,98666.25
2023-01-02T13:57:36.008Z,98665.28
2023-01-02T14:00:53.408Z,98659.31
2023-01-02T14:04:36.733Z,98661.16
2023-01-02T14:07:49.494Z,98665.16
2023-01-02T14:11:02.697Z,98677.09
2023-01-02T14:14:18.384Z,98680.53
2023-01-02T14:17:50.428Z,98681.91
2023-01-02T14:21:00.869Z,98670.56
2023-01-02T14:24:17.947Z,98681.63
2023-01-02T14:27:30.598Z,98684.00
2023-01-02T14:30:43.441Z,98680.81
2023-01-02T14:33:59.332Z,98683.09
2023-01-02T14:37:07.885Z,98679.72
2023-01-02T14:40:35.913Z,98688.50
2023-01-02T14:43:40.548Z,98678.06
2023-01-02T14:46:47.546Z,98678.25
2023-01-02T14:50:02.346Z,98686.56
2023-01-02T14:53:23.392Z,98693.06
2023-01-02T14:56:38.491Z,98694.97
2023-01-02T14:59:49.822Z,98694.16
2023-01-02T15:03:10.516Z,98696.53
2023-01-02T15:06:32.960Z,98689.75
2023-01-02T15:09:49.008Z,98686.22
2023-01-02T15:13:12.242Z,98702.66
2023-01-02T15:16:19.015Z,98698.91
2023-01-02T15:19:33.634Z,98709.25
2023-01-02T15:22:40.541Z,98709.97
2023-01-02T15:25:50.540Z,98718.72
2023-01-02T15:29:07.111Z,98725.47
2023-01-02T15:32:23.823Z,98708.25
2023-01-02T15:35:36.143Z,98701.22
2023-01-02T15:38:43.639Z,98709.13
2023-01-02T15:41:57.514Z,98706.38
2023-01-02T15:45:11.204Z,98703.09
2023-01-02T15:48:19.281Z,98690.13
2023-01-02T15:51:41.412Z,98698.03
2023-01-02T15:54:48.430Z,98714.94
2023-01-02T15:57:58.219Z,98713.47
2023-01-02T16:01:20.485Z,98714.47
2023-01-02T16:04:30.826Z,98709.69
2023-01-02T16:07:38.964Z,98716.44
2023-01-02T16:10:51.442Z,98725.31
2023-01-02T16:14:23.230Z,98720.56
2023-01-02T16:17:35.331Z,98720.88
2023-01-02T16:20:42.451Z,98726.97
2023-01-02T16:23:57.109Z,98731.75
2023-01-02T16:27:03.245Z,98729.13
2023-01-02T16:30:37.898Z,98726.81
2023-01-02T16:33:46.366Z,98738.97
2023-01-02T16:37:12.563Z,98719.59
2023-01-02T16:41:00.297Z,98711.72
2023-01-02T16:44:15.049Z,98723.53
2023-01-02T16:47:24.334Z,98716.66
2023-01-02T16:50:31.317Z,98708.94
2023-01-02T16:53:37.580Z,98714.66
2023-01-02T16:56:45.391Z,98723.56
2023-01-02T16:59:51.321Z,98727.00
2023-01-02T17:03:00.859Z,98719.63
2023-01-02T17:06:14.591Z,98729.94
2023-01-02T17:09:21.286Z,98739.50
2023-01-02T17:12:27.696Z,98744.75
2023-01-02T17:15:34.920Z,98742.28
2023-01-02T17:18:43.689Z,98749.34
2023-01-02T17:21:50.838Z,98743.44
2023-01-02T17:24:57.138Z,98735.03
2023-01-02T17:28:04.440Z,98737.16
2023-01-02T17:31:10.357Z,98721.59
2023-01-02T17:34:19.665Z,98718.25
2023-01-02T17:37:25.686Z,98719.56
2023-01-02T17:40:32.769Z,98732.38
2023-01-02T17:43:38.581Z,98731.06
2023-01-02T17:47:38.904Z,98733.19
2023-01-02T17:50:35.132Z,98736.81
2023-01-02T17:53:41.954Z,98736.84
2023-01-02T17:56:47.790Z,98736.81
2023-01-02T17:59:54.517Z,98738.59
2023-01-02T18:03:00.459Z,98725.47
2023-01-02T18:06:11.685Z,98733.88
2023-01-02T18:09:18.492Z,98750.78
2023-01-02T18:12:26.318Z,98739.44
2023-01-02T18:15:32.668Z,98754.03
2023-01-02T18:18:40.564Z,98750.22
2023-01-02T18:21:49.538Z,98745.63
2023-01-02T18:24:56.319Z,98744.13
2023-01-02T18:28:21.625Z,98753.13
2023-01-02T18:31:33.790Z,98760.72
2023-01-02T18:34:48.886Z,98758.31
2023-01-02T18:38:01.098Z,98753.06
2023-01-02T18:41:21.797Z,98751.59
2023-01-02T18:44:31.657Z,98744.34
2023-01-02T18:47:40.702Z,98756.84
2023-01-02T18:50:52.888Z,98757.50
2023-01-02T18:54:01.427Z,98753.72
2023-01-02T18:57:18.509Z,98750.75
2023-01-02T19:00:28.736Z,98742.88
2023-01-02T19:03:36.420Z,98749.91
2023-01-02T19:06:49.071Z,98753.53
2023-01-02T19:10:20.792Z,98751.88
2023-01-02T19:13:29.554Z,98758.41
2023-01-02T19:16:37.641Z,98743.97
2023-01-02T19:19:43.477Z,98746.69
2023-01-02T19:22:50.404Z,98740.13
2023-01-02T19:26:11.390Z,98754.38
2023-01-02T19:29:26.655Z,98766.84
2023-01-02T19:32:37.636Z,98762.91
2023-01-02T19:36:03.029Z,98764.91
2023-01-02T19:39:28.168Z,98776.59
2023-01-02T19:42:39.135Z,98773.81
2023-01-02T19:45:44.990Z,98771.03
2023-01-02T19:48:52.185Z,98773.81
2023-01-02T19:51:58.078Z,98784.31
2023-01-02T19:55:05.372Z,98787.56
2023-01-02T19:58:13.906Z,98798.06
2023-01-02T20:01:22.379Z,98790.34
2023-01-02T20:04:28.514Z,98775.38
2023-01-02T20:07:35.392Z,98797.06
2023-01-02T20:10:41.310Z,98794.28
2023-01-02T20:13:50.662Z,98795.53
2023-01-02T20:16:56.582Z,98798.25
2023-01-02T20:20:04.438Z,98802.03
2023-01-02T20:23:10.351Z,98803.66
2023-01-02T20:26:17.095Z,98805.59
2023-01-02T20:29:25.920Z,98808.75
2023-01-02T20:32:32.607Z,98815.47
2023-01-02T20:35:38.343Z,98822.25
2023-01-02T20:38:44.992Z,98817.66
2023-01-02T20:41:50.907Z,98831.53
2023-01-02T20:45:00.161Z,98829.72
2023-01-02T20:48:06.000Z,98829.59
2023-01-02T20:51:12.715Z,98815.38
2023-01-02T20:54:18.465Z,98812.16
2023-01-02T20:57:25.104Z,98826.25
2023-01-02T21:00:33.575Z,98831.03
2023-01-02T21:03:41.588Z,98836.00
2023-01-02T21:06:47.512Z,98847.44
2023-01-02T21:09:57.674Z,98834.81
2023-01-02T21:13:13.421Z,98830.84
2023-01-02T21:16:23.427Z,98846.19
2023-01-02T21:19:29.399Z,98839.31
2023-01-02T21:22:36.039Z,98840.66
2023-01-02T21:25:42.729Z,98842.13
2023-01-02T21:28:50.968Z,98857.72
2023-01-02T21:31:59.731Z,98851.66
2023-01-02T21:35:08.035Z,98850.31
2023-01-02T21:38:14.901Z,98856.53
2023-01-02T21:41:36.073Z,98866.34
2023-01-02T21:44:43.783Z,98873.22
2023-01-02T21:47:53.864Z,98858.25
2023-01-02T21:51:00.936Z,98865.81
2023-01-02T21:54:08.157Z,98870.97
2023-01-02T21:57:14.209Z,98884.69
2023-01-02T22:00:25.147Z,98886.84
2023-01-02T22:03:34.683Z,98882.19
2023-01-02T22:07:04.634Z,98885.00
2023-01-02T22:10:11.323Z,98874.31
2023-01-02T22:13:19.181Z,98884.94
2023-01-02T22:16:25.921Z,98876.97
2023-01-02T22:19:36.583Z,98885.53
2023-01-02T22:22:42.648Z,98874.94
2023-01-02T22:25:49.501Z,98878.78
2023-01-02T22:28:57.638Z,98893.09
2023-01-02T22:32:06.187Z,98896.81
2023-01-02T22:35:16.762Z,98904.25
2023-01-02T22:38:23.406Z,98897.66
2023-01-02T22:41:31.121Z,98910.47
2023-01-02T22:44:38.317Z,98912.78
2023-01-02T22:47:49.770Z,98918.28
2023-01-02T22:51:04.558Z,98916.19
2023-01-02T22:54:17.744Z,98922.69
2023-01-02T22:57:24.641Z,98917.75
2023-01-02T23:00:30.612Z,98923.28
2023-01-02T23:03:44.048Z,98918.47
2023-01-02T23:07:22.971Z,98921.38
2023-01-02T23:10:20.913Z,98923.72
2023-01-02T23:13:27.420Z,98935.69
2023-01-02T23:16:48.187Z,98924.13
2023-01-02T23:19:54.386Z,98920.94
2023-01-02T23:23:03.796Z,98913.09
2023-01-02T23:26:10.987Z,98922.06
2023-01-02T23:29:19.183Z,98919.16
2023-01-02T23:32:24.959Z,98923.03
2023-01-02T23:35:31.715Z,98912.91
2023-01-02T23:38:40.398Z,98917.59
2023-01-02T23:41:49.027Z,98915.09
2023-01-02T23:44:54.865Z,98910.13
2023-01-02T23:48:01.540Z,98913.56
2023-01-02T23:51:08.857Z,98919.50
2023-01-02T23:54:21.028Z,98923.75
2023-01-02T23:57:26.896Z,98933.63
